createdAt,value
2023-01-02T00:01:46.555Z,9.29
2023-01-02T00:04:13.720Z,9.38
2023-01-02T00:06:41.413Z,9.37
2023-01-02T00:09:09.818Z,9.39
2023-01-02T00:11:37.659Z,9.41
2023-01-02T00:14:04.872Z,9.44
2023-01-02T00:16:32.335Z,9.41
2023-01-02T00:19:00.754Z,9.42
2023-01-02T00:21:28.219Z,9.42
2023-01-02T00:23:55.667Z,9.39
2023-01-02T00:26:23.058Z,9.39
2023-01-02T00:28:50.549Z,9.40
2023-01-02T00:31:18.106Z,9.36
2023-01-02T00:33:47.546Z,9.42
2023-01-02T00:36:17.029Z,9.42
2023-01-02T00:38:44.660Z,9.40
2023-01-02T00:41:13.095Z,9.35
2023-01-02T00:43:40.665Z,9.26
2023-01-02T00:46:11.943Z,9.30
2023-01-02T00:48:40.445Z,9.13
2023-01-02T00:51:09.123Z,9.25
2023-01-02T00:53:37.935Z,9.19
2023-01-02T00:56:05.357Z,9.16
2023-01-02T00:58:32.560Z,9.21
2023-01-02T01:01:00.218Z,9.25
2023-01-02T01:03:27.472Z,9.22
2023-01-02T01:05:56.107Z,9.16
2023-01-02T01:08:25.537Z,9.08
2023-01-02T01:10:54.090Z,9.09
2023-01-02T01:13:21.475Z,9.03
2023-01-02T01:15:50.256Z,8.95
2023-01-02T01:18:17.456Z,8.95
2023-01-02T01:20:45.940Z,8.99
2023-01-02T01:23:15.459Z,9.01
2023-01-02T01:25:43.924Z,9.09
2023-01-02T01:28:11.334Z,8.98
2023-01-02T01:30:38.768Z,9.05
2023-01-02T01:33:06.301Z,9.20
2023-01-02T01:35:37.251Z,9.18
2023-01-02T01:38:05.783Z,9.16
2023-01-02T01:40:45.452Z,9.17
2023-01-02T01:43:15.851Z,9.17
2023-01-02T01:45:45.066Z,9.17
2023-01-02T01:48:16.967Z,9.23
2023-01-02T01:50:46.943Z,9.26
2023-01-02T01:53:18.455Z,9.29
2023-01-02T01:55:53.708Z,9.32
2023-01-02T01:58:33.910Z,9.33
2023-01-02T02:01:04.517Z,9.41
2023-01-02T02:03:34.688Z,9.40
2023-01-02T02:06:03.710Z,9.38
2023-01-02T02:08:56.313Z,9.41
2023-01-02T02:11:24.403Z,9.51
2023-01-02T02:13:52.105Z,9.54
2023-01-02T02:16:24.030Z,9.55
2023-01-02T02:19:22.593Z,9.57
2023-01-02T02:22:18.152Z,9.58
2023-01-02T02:25:16.552Z,9.60
2023-01-02T02:28:12.480Z,9.63
2023-01-02T02:31:05.420Z,9.66
2023-01-02T02:34:08.249Z,9.67
2023-01-02T02:36:43.394Z,9.67
2023-01-02T02:39:32.492Z,9.71
2023-01-02T02:42:26.183Z,9.71
2023-01-02T02:45:05.819Z,9.71
2023-01-02T02:47:58.760Z,9.75
2023-01-02T02:50:54.431Z,9.71
2023-01-02T02:53:28.815Z,9.70
2023-01-02T02:56:05.935Z,9.65
2023-01-02T02:58:34.750Z,9.65
2023-01-02T03:01:08.917Z,9.55
2023-01-02T03:03:35.987Z,9.55
2023-01-02T03:06:22.178Z,9.56
2023-01-02T03:09:08.343Z,9.50
2023-01-02T03:12:07.577Z,9.45
2023-01-02T03:14:45.873Z,9.39
2023-01-02T03:17:26.082Z,9.43
2023-01-02T03:20:02.158Z,9.43
2023-01-02T03:22:36.920Z,9.43
2023-01-02T03:25:12.162Z,9.47
2023-01-02T03:27:44.969Z,9.49
2023-01-02T03:30:19.466Z,9.50
2023-01-02T03:32:53.279Z,9.56
2023-01-02T03:35:27.469Z,9.56
2023-01-02T03:37:58.812Z,9.61
2023-01-02T03:40:36.371Z,9.64
2023-01-02T03:43:21.547Z,9.73
2023-01-02T03:46:05.129Z,9.74
2023-01-02T03:49:00.756Z,9.72
2023-01-02T03:51:28.340Z,9.80
2023-01-02T03:53:55.910Z,9.68
2023-01-02T03:56:59.451Z,9.69
2023-01-02T03:59:32.946Z,9.61
2023-01-02T04:02:04.899Z,9.78
2023-01-02T04:04:58.771Z,9.82
2023-01-02T04:07:46.348Z,9.82
2023-01-02T04:10:16.624Z,9.79
2023-01-02T04:12:51.131Z,9.84
2023-01-02T04:15:22.360Z,9.82
2023-01-02T04:18:01.455Z,9.90
2023-01-02T04:20:37.281Z,9.92
2023-01-02T04:23:17.787Z,9.95
2023-01-02T04:25:56.504Z,9.93
2023-01-02T04:28:28.433Z,9.90
2023-01-02T04:31:07.383Z,9.88
2023-01-02T04:33:40.377Z,9.90
2023-01-02T04:36:17.058Z,9.79
2023-01-02T04:38:46.469Z,9.74
2023-01-02T04:41:20.305Z,9.77
2023-01-02T04:43:48.748Z,9.76
2023-01-02T04:46:17.378Z,9.73
2023-01-02T04:48:44.837Z,9.81
2023-01-02T04:51:13.319Z,9.79
2023-01-02T04:53:40.803Z,9.80
2023-01-02T04:56:09.361Z,9.83
2023-01-02T04:58:36.668Z,9.85
2023-01-02T05:01:09.290Z,9.77
2023-01-02T05:03:43.733Z,9.85
2023-01-02T05:06:14.214Z,9.87
2023-01-02T05:08:42.190Z,9.84
2023-01-02T05:11:17.818Z,9.83
2023-01-02T05:13:45.409Z,9.79
2023-01-02T05:16:12.942Z,9.89
2023-01-02T05:18:40.166Z,9.96
2023-01-02T05:21:31.083Z,9.98
2023-01-02T05:24:01.250Z,9.94
2023-01-02T05:26:33.273Z,9.94
2023-01-02T05:29:01.592Z,9.88
2023-01-02T05:31:29.232Z,9.80
2023-01-02T05:33:58.969Z,9.81
2023-01-02T05:36:27.919Z,9.77
2023-01-02T05:38:56.803Z,9.72
2023-01-02T05:41:24.474Z,9.67
2023-01-02T05:43:55.101Z,9.70
2023-01-02T05:46:23.695Z,9.65
2023-01-02T05:48:51.195Z,9.69
2023-01-02T05:51:18.963Z,9.70
2023-01-02T05:53:46.135Z,9.67
2023-01-02T05:56:21.527Z,9.64
2023-01-02T05:58:50.780Z,9.64
2023-01-02T06:01:26.072Z,9.65
2023-01-02T06:03:56.420Z,9.60
2023-01-02T06:06:31.474Z,9.58
2023-01-02T06:09:00.570Z,9.69
2023-01-02T06:11:31.351Z,9.66
2023-01-02T06:13:58.709Z,9.68
2023-01-02T06:16:26.826Z,9.69
2023-01-02T06:18:53.999Z,9.63
2023-01-02T06:21:22.277Z,9.70
2023-01-02T06:23:54.388Z,9.67
2023-01-02T06:26:22.367Z,9.65
2023-01-02T06:28:51.983Z,9.55
2023-01-02T06:31:21.316Z,9.58
2023-01-02T06:33:59.493Z,9.62
2023-01-02T06:36:29.463Z,9.61
2023-01-02T06:38:59.199Z,9.59
2023-01-02T06:41:26.938Z,9.55
2023-01-02T06:43:54.320Z,9.61
2023-01-02T06:46:24.185Z,9.66
2023-01-02T06:48:52.816Z,9.66
2023-01-02T06:51:24.397Z,9.69
2023-01-02T06:53:52.966Z,9.71
2023-01-02T06:56:22.396Z,9.74
2023-01-02T06:58:55.916Z,9.86
2023-01-02T07:01:23.740Z,9.84
2023-01-02T07:03:51.075Z,9.92
2023-01-02T07:06:20.638Z,9.99
2023-01-02T07:08:48.966Z,10.04
2023-01-02T07:11:25.240Z,10.06
2023-01-02T07:13:54.512Z,10.11
2023-01-02T07:16:24.402Z,10.16
2023-01-02T07:18:54.175Z,10.18
2023-01-02T07:21:21.469Z,10.18
2023-01-02T07:23:48.920Z,10.19
2023-01-02T07:26:16.577Z,10.19
2023-01-02T07:28:43.768Z,10.13
2023-01-02T07:31:19.609Z,10.04
2023-01-02T07:33:58.390Z,10.03
2023-01-02T07:36:25.693Z,9.99
2023-01-02T07:38:55.987Z,9.94
2023-01-02T07:41:25.513Z,9.89
2023-01-02T07:43:55.494Z,9.91
2023-01-02T07:46:28.743Z,9.96
2023-01-02T07:48:55.860Z,9.98
2023-01-02T07:51:26.968Z,9.97
2023-01-02T07:53:54.928Z,9.98
2023-01-02T07:56:22.012Z,10.04
2023-01-02T07:58:49.116Z,10.08
2023-01-02T08:01:16.647Z,10.10
2023-01-02T08:03:43.784Z,10.16
2023-01-02T08:06:17.391Z,10.20
2023-01-02T08:08:44.847Z,10.26
2023-01-02T08:11:14.419Z,10.33
2023-01-02T08:13:41.870Z,10.40
2023-01-02T08:16:17.067Z,10.45
2023-01-02T08:18:45.027Z,10.54
2023-01-02T08:21:12.690Z,10.62
2023-01-02T08:23:41.210Z,10.70
2023-01-02T08:26:10.284Z,10.78
2023-01-02T08:28:40.038Z,10.89
2023-01-02T08:31:13.532Z,10.99
2023-01-02T08:33:42.002Z,11.05
2023-01-02T08:36:10.277Z,11.14
2023-01-02T08:38:37.912Z,11.32
2023-01-02T08:41:06.935Z,11.44
2023-01-02T08:43:35.836Z,11.62
2023-01-02T08:46:05.304Z,11.68
2023-01-02T08:48:32.746Z,11.77
2023-01-02T08:51:00.137Z,11.99
2023-01-02T08:53:27.447Z,12.30
2023-01-02T08:55:54.550Z,12.48
2023-01-02T08:58:23.955Z,12.83
2023-01-02T09:00:52.938Z,13.02
2023-01-02T09:03:20.339Z,13.12
2023-01-02T09:05:47.888Z,13.68
2023-01-02T09:08:16.244Z,14.19
2023-01-02T09:10:43.314Z,14.91
2023-01-02T09:13:10.648Z,15.14
2023-01-02T09:15:37.882Z,14.98
2023-01-02T09:18:06.195Z,14.92
2023-01-02T09:20:34.574Z,15.22
2023-01-02T09:23:02.025Z,15.04
2023-01-02T09:25:29.515Z,15.76
2023-01-02T09:27:57.039Z,15.22
2023-01-02T09:30:25.249Z,15.35
2023-01-02T09:32:52.312Z,15.77
2023-01-02T09:35:19.381Z,15.79
2023-01-02T09:37:46.815Z,15.55
2023-01-02T09:40:14.880Z,15.64
2023-01-02T09:42:45.348Z,15.64
2023-01-02T09:45:14.381Z,15.99
2023-01-02T09:47:44.543Z,16.39
2023-01-02T09:50:18.824Z,16.17
2023-01-02T09:52:53.662Z,16.52
2023-01-02T09:55:43.714Z,16.22
2023-01-02T09:58:41.727Z,16.66
2023-01-02T10:01:23.256Z,16.70
2023-01-02T10:04:18.287Z,17.74
2023-01-02T10:06:57.816Z,17.68
2023-01-02T10:09:47.817Z,16.62
2023-01-02T10:12:32.585Z,16.40
2023-01-02T10:15:04.614Z,16.21
2023-01-02T10:17:39.906Z,15.83
2023-01-02T10:20:30.695Z,16.70
2023-01-02T10:23:06.117Z,17.58
2023-01-02T10:26:14.223Z,16.91
2023-01-02T10:28:56.258Z,16.68
2023-01-02T10:31:32.121Z,16.78
2023-01-02T10:34:01.579Z,16.69
2023-01-02T10:36:32.316Z,16.46
2023-01-02T10:39:22.620Z,15.75
2023-01-02T10:41:57.796Z,16.26
2023-01-02T10:44:31.478Z,16.15
2023-01-02T10:47:06.842Z,16.81
2023-01-02T10:49:38.079Z,16.10
2023-01-02T10:52:15.265Z,16.53
2023-01-02T10:55:03.540Z,16.07
2023-01-02T10:57:51.311Z,16.28
2023-01-02T11:00:22.532Z,15.75
2023-01-02T11:03:14.135Z,15.63
2023-01-02T11:05:50.374Z,15.33
2023-01-02T11:08:22.539Z,16.19
2023-01-02T11:10:55.812Z,15.94
2023-01-02T11:13:23.022Z,15.57
2023-01-02T11:15:57.044Z,15.81
2023-01-02T11:18:31.178Z,15.69
2023-01-02T11:21:04.636Z,15.63
2023-01-02T11:23:37.702Z,14.94
2023-01-02T11:26:11.005Z,15.43
2023-01-02T11:28:41.280Z,15.98
2023-01-02T11:31:11.708Z,15.97
2023-01-02T11:33:39.025Z,16.38
2023-01-02T11:36:06.147Z,15.87
2023-01-02T11:38:44.415Z,15.98
2023-01-02T11:45:08.458Z,15.71
2023-01-02T11:47:57.886Z,16.28
2023-01-02T11:50:27.180Z,16.50
2023-01-02T11:52:55.917Z,16.46
2023-01-02T11:55:39.660Z,16.30
2023-01-02T11:58:27.345Z,16.43
2023-01-02T12:01:17.530Z,15.58
2023-01-02T12:03:44.794Z,16.03
2023-01-02T12:06:19.617Z,15.63
2023-01-02T12:08:53.259Z,15.79
2023-01-02T12:11:57.012Z,15.78
2023-01-02T12:14:42.768Z,16.20
2023-01-02T12:17:48.924Z,16.31
2023-01-02T12:20:27.644Z,16.94
2023-01-02T12:23:14.034Z,15.81
2023-01-02T12:25:54.699Z,15.58
2023-01-02T12:28:50.764Z,16.14
2023-01-02T12:31:46.460Z,15.92
2023-01-02T12:34:44.150Z,15.98
2023-01-02T12:37:21.096Z,16.70
2023-01-02T12:39:58.406Z,16.57
2023-01-02T12:42:25.439Z,16.53
2023-01-02T12:44:58.079Z,16.56
2023-01-02T12:47:34.469Z,15.96
2023-01-02T12:50:33.652Z,16.75
2023-01-02T12:53:09.749Z,16.85
2023-01-02T12:56:08.121Z,16.46
2023-01-02T12:58:52.556Z,16.08
2023-01-02T13:01:44.586Z,16.31
2023-01-02T13:04:20.619Z,16.57
2023-01-02T13:07:35.998Z,16.18
2023-01-02T13:10:05.984Z,16.08
2023-01-02T13:12:36.153Z,15.61
2023-01-02T13:15:17.233Z,16.09
2023-01-02T13:18:08.354Z,16.38
2023-01-02T13:20:44.069Z,16.83
2023-01-02T13:23:27.419Z,16.59
2023-01-02T13:25:59.959Z,16.82
2023-01-02T13:28:29.675Z,17.28
2023-01-02T13:31:35.429Z,17.74
2023-01-02T13:33:50.292Z,17.10
2023-01-02T13:36:27.024Z,16.79
2023-01-02T13:39:03.605Z,16.33
2023-01-02T13:41:58.154Z,16.14
2023-01-02T13:44:36.784Z,15.80
2023-01-02T13:47:46.862Z,15.93
2023-01-02T13:50:30.417Z,16.40
2023-01-02T13:53:10.389Z,16.05
2023-01-02T13:55:40.960Z,15.48
2023-01-02T13:58:20.805Z,15.36
2023-01-02T14:00:56.597Z,15.37
2023-01-02T14:03:24.210Z,14.87
2023-01-02T14:06:00.800Z,14.22
2023-01-02T14:08:34.222Z,13.90
2023-01-02T14:11:13.685Z,13.66
2023-01-02T14:13:48.599Z,13.19
2023-01-02T14:16:44.626Z,13.22
2023-01-02T14:19:16.902Z,13.14
2023-01-02T14:21:59.420Z,13.17
2023-01-02T14:24:39.115Z,12.97
2023-01-02T14:27:24.303Z,13.13
2023-01-02T14:29:57.398Z,12.90
2023-01-02T14:32:39.497Z,12.64
2023-01-02T14:35:32.619Z,12.36
2023-01-02T14:38:23.985Z,12.07
2023-01-02T14:40:52.441Z,11.93
2023-01-02T14:43:37.942Z,11.81
2023-01-02T14:46:12.476Z,11.73
2023-01-02T14:49:02.318Z,11.61
2023-01-02T14:52:01.557Z,11.57
2023-01-02T14:54:52.094Z,11.44
2023-01-02T14:57:33.421Z,11.40
2023-01-02T15:00:04.863Z,11.38
2023-01-02T15:02:45.127Z,11.33
2023-01-02T15:05:21.440Z,11.30
2023-01-02T15:07:53.295Z,11.23
2023-01-02T15:10:23.151Z,11.13
2023-01-02T15:13:09.244Z,11.08
2023-01-02T15:15:42.137Z,11.01
2023-01-02T15:18:29.538Z,10.95
2023-01-02T15:21:08.872Z,10.90
2023-01-02T15:23:44.031Z,10.83
2023-01-02T15:26:33.566Z,10.74
2023-01-02T15:29:06.172Z,10.63
2023-01-02T15:31:34.164Z,10.69
2023-01-02T15:34:02.756Z,10.71
2023-01-02T15:36:36.365Z,10.68
2023-01-02T15:39:14.651Z,10.69
2023-01-02T15:41:49.525Z,10.60
2023-01-02T15:44:48.251Z,10.45
2023-01-02T15:47:18.186Z,10.36
2023-01-02T15:49:48.658Z,10.27
2023-01-02T15:52:29.828Z,10.25
2023-01-02T15:54:58.934Z,10.24
2023-01-02T15:57:29.623Z,10.20
2023-01-02T15:59:57.058Z,10.20
2023-01-02T16:02:57.593Z,10.19
2023-01-02T16:05:24.872Z,10.16
2023-01-02T16:07:55.784Z,10.17
2023-01-02T16:10:26.026Z,10.16
2023-01-02T16:13:41.157Z,10.12
2023-01-02T16:16:15.638Z,9.99
2023-01-02T16:18:48.080Z,9.94
2023-01-02T16:21:17.511Z,9.94
2023-01-02T16:23:52.758Z,9.93
2023-01-02T16:26:23.658Z,9.91
2023-01-02T16:28:51.524Z,9.90
2023-01-02T16:31:25.046Z,9.95
2023-01-02T16:33:52.556Z,10.05
2023-01-02T16:36:25.889Z,9.99
2023-01-02T16:39:01.743Z,9.85
2023-01-02T16:41:35.100Z,9.74
2023-01-02T16:44:14.822Z,9.74
2023-01-02T16:46:43.500Z,9.69
2023-01-02T16:49:17.349Z,9.74
2023-01-02T16:51:50.767Z,9.76
2023-01-02T16:54:19.949Z,9.80
2023-01-02T16:56:48.942Z,9.84
2023-01-02T16:59:16.269Z,9.84
2023-01-02T17:01:43.986Z,9.86
2023-01-02T17:04:15.521Z,9.81
2023-01-02T17:06:43.018Z,9.81
2023-01-02T17:09:10.310Z,9.83
2023-01-02T17:11:59.126Z,9.78
2023-01-02T17:14:36.552Z,9.82
2023-01-02T17:17:04.036Z,9.79
2023-01-02T17:19:31.561Z,9.79
2023-01-02T17:22:01.045Z,9.60
2023-01-02T17:24:28.511Z,9.71
2023-01-02T17:26:56.000Z,9.67
2023-01-02T17:29:23.494Z,9.61
2023-01-02T17:31:51.110Z,9.59
2023-01-02T17:34:18.330Z,9.47
2023-01-02T17:36:46.913Z,9.74
2023-01-02T17:39:14.752Z,9.72
2023-01-02T17:41:42.237Z,9.67
2023-01-02T17:44:09.695Z,9.45
2023-01-02T17:49:24.638Z,9.41
2023-01-02T17:51:53.101Z,9.38
2023-01-02T17:54:20.680Z,9.48
2023-01-02T17:56:48.104Z,9.41
2023-01-02T17:59:19.493Z,9.45
2023-01-02T18:01:48.436Z,9.31
2023-01-02T18:04:16.348Z,9.35
2023-01-02T18:06:44.028Z,9.19
2023-01-02T18:09:11.658Z,9.17
2023-01-02T18:11:39.113Z,9.03
2023-01-02T18:14:20.604Z,8.94
2023-01-02T18:16:48.286Z,8.91
2023-01-02T18:19:33.440Z,8.79
2023-01-02T18:22:01.048Z,8.68
2023-01-02T18:24:32.153Z,8.71
2023-01-02T18:27:14.755Z,8.78
2023-01-02T18:29:42.938Z,8.68
2023-01-02T18:32:29.298Z,8.80
2023-01-02T18:34:59.708Z,8.83
2023-01-02T18:37:30.015Z,8.75
2023-01-02T18:40:01.340Z,8.65
2023-01-02T18:42:33.790Z,8.74
2023-01-02T18:45:01.661Z,8.51
2023-01-02T18:47:33.714Z,8.53
2023-01-02T18:50:18.304Z,8.51
2023-01-02T18:52:52.961Z,8.54
2023-01-02T18:55:27.420Z,8.45
2023-01-02T18:58:01.459Z,8.41
2023-01-02T19:00:34.689Z,8.41
2023-01-02T19:03:13.693Z,8.36
2023-01-02T19:05:45.442Z,8.29
2023-01-02T19:08:15.661Z,8.30
2023-01-02T19:10:46.851Z,8.29
2023-01-02T19:13:20.671Z,8.46
2023-01-02T19:15:59.530Z,8.49
2023-01-02T19:18:43.221Z,8.51
2023-01-02T19:21:46.280Z,8.52
2023-01-02T19:24:24.645Z,8.55
2023-01-02T19:26:56.868Z,8.55
2023-01-02T19:29:27.265Z,8.63
2023-01-02T19:32:29.729Z,8.66
2023-01-02T19:35:02.907Z,8.59
2023-01-02T19:37:45.563Z,8.50
2023-01-02T19:40:22.208Z,8.39
2023-01-02T19:42:54.464Z,8.21
2023-01-02T19:45:24.499Z,8.14
2023-01-02T19:47:54.323Z,8.09
2023-01-02T19:50:28.291Z,8.12
2023-01-02T19:52:55.820Z,8.05
2023-01-02T19:55:23.422Z,8.08
2023-01-02T19:57:51.298Z,8.05
2023-01-02T20:00:20.271Z,8.04
2023-01-02T20:02:52.137Z,7.96
2023-01-02T20:05:22.767Z,7.96
2023-01-02T20:07:52.890Z,7.91
2023-01-02T20:10:22.814Z,7.89
2023-01-02T20:12:51.538Z,7.78
2023-01-02T20:15:25.639Z,7.80
2023-01-02T20:17:55.251Z,7.80
2023-01-02T20:20:28.225Z,7.70
2023-01-02T20:22:57.315Z,7.75
2023-01-02T20:25:26.893Z,7.75
2023-01-02T20:27:56.744Z,7.50
2023-01-02T20:30:37.924Z,7.51
2023-01-02T20:33:07.438Z,7.48
2023-01-02T20:35:37.919Z,7.80
2023-01-02T20:38:05.810Z,7.73
2023-01-02T20:40:34.842Z,7.72
2023-01-02T20:43:02.828Z,7.68
2023-01-02T20:45:38.554Z,7.64
2023-01-02T20:48:06.811Z,7.49
2023-01-02T20:50:34.786Z,7.69
2023-01-02T20:53:03.539Z,7.63
2023-01-02T20:55:31.438Z,7.56
2023-01-02T20:57:59.698Z,7.77
2023-01-02T21:00:29.241Z,7.54
2023-01-02T21:02:57.340Z,7.46
2023-01-02T21:05:26.585Z,7.42
2023-01-02T21:07:54.067Z,7.44
2023-01-02T21:10:21.726Z,7.44
2023-01-02T21:13:08.126Z,7.39
2023-01-02T21:15:55.166Z,7.42
2023-01-02T21:18:25.492Z,7.51
2023-01-02T21:21:05.820Z,7.46
2023-01-02T21:23:35.792Z,7.49
2023-01-02T21:26:07.504Z,7.43
2023-01-02T21:28:36.991Z,7.37
2023-01-02T21:31:05.406Z,7.49
2023-01-02T21:33:34.144Z,7.81
2023-01-02T21:36:03.714Z,7.87
2023-01-02T21:38:31.618Z,7.73
2023-01-02T21:41:19.173Z,7.67
2023-01-02T21:43:52.635Z,7.59
2023-01-02T21:46:21.625Z,7.26
2023-01-02T21:48:49.023Z,7.20
2023-01-02T21:51:16.462Z,7.26
2023-01-02T21:53:44.321Z,7.47
2023-01-02T21:56:17.709Z,7.41
2023-01-02T21:58:45.160Z,7.22
2023-01-02T22:01:18.828Z,6.84
2023-01-02T22:03:46.140Z,6.77
2023-01-02T22:06:13.256Z,6.65
2023-01-02T22:08:40.760Z,6.57
2023-01-02T22:11:27.630Z,6.71
2023-01-02T22:13:57.310Z,6.75
2023-01-02T22:16:24.664Z,6.92
2023-01-02T22:18:52.075Z,7.04
2023-01-02T22:21:19.607Z,7.34
2023-01-02T22:23:47.052Z,7.51
2023-01-02T22:26:14.627Z,7.64
2023-01-02T22:28:44.636Z,7.95
2023-01-02T22:31:12.277Z,8.16
2023-01-02T22:33:39.817Z,8.35
2023-01-02T22:36:09.335Z,8.41
2023-01-02T22:38:43.934Z,8.56
2023-01-02T22:41:22.356Z,8.60
2023-01-02T22:43:49.794Z,8.59
2023-01-02T22:46:30.491Z,8.78
2023-01-02T22:48:58.485Z,8.89
2023-01-02T22:51:57.634Z,9.06
2023-01-02T22:54:17.184Z,9.14
2023-01-02T22:56:44.820Z,9.14
2023-01-02T22:59:12.707Z,9.22
2023-01-02T23:01:42.341Z,9.21
2023-01-02T23:04:23.672Z,9.29
2023-01-02T23:07:22.971Z,9.42
2023-01-02T23:09:39.632Z,9.55
2023-01-02T23:12:07.403Z,9.43
2023-01-02T23:14:35.588Z,9.32
2023-01-02T23:17:22.180Z,9.23
2023-01-02T23:19:50.153Z,9.14
2023-01-02T23:22:17.834Z,9.13
2023-01-02T23:24:44.979Z,9.09
2023-01-02T23:27:18.923Z,9.04
2023-01-02T23:29:46.453Z,8.91
2023-01-02T23:32:14.698Z,9.06
2023-01-02T23:34:42.902Z,8.96
2023-01-02T23:37:10.960Z,8.76
2023-01-02T23:39:38.435Z,8.68
2023-01-02T23:42:07.920Z,8.77
2023-01-02T23:44:35.472Z,8.82
2023-01-02T23:47:08.656Z,8.88
2023-01-02T23:49:37.466Z,8.88
2023-01-02T23:52:05.204Z,8.84
2023-01-02T23:54:33.508Z,8.82
2023-01-02T23:57:02.072Z,8.90
2023-01-02T23:59:31.452Z,8.96
